sensor_id;sensor_type;location;lat;lon;timestamp;P1;durP1;ratioP1;P2;durP2;ratioP2
33826;SDS011;20128;45.582;5.298;2023-04-06T00:01:27;23.55;;;6.05;;
33826;SDS011;20128;45.582;5.298;2023-04-06T00:03:52;18.83;;;5.90;;
33826;SDS011;20128;45.582;5.298;2023-04-06T00:06:18;12.88;;;4.30;;
33826;SDS011;20128;45.582;5.298;2023-04-06T00:08:43;13.23;;;5.32;;
33826;SDS011;20128;45.582;5.298;2023-04-06T00:11:09;13.25;;;6.40;;
33826;SDS011;20128;45.582;5.298;2023-04-06T00:13:35;14.52;;;6.80;;
33826;SDS011;20128;45.582;5.298;2023-04-06T00:16:02;18.90;;;5.68;;
33826;SDS011;20128;45.582;5.298;2023-04-06T00:18:30;15.50;;;6.05;;
33826;SDS011;20128;45.582;5.298;2023-04-06T00:20:55;18.67;;;6.75;;
33826;SDS011;20128;45.582;5.298;2023-04-06T00:23:21;14.43;;;6.32;;
33826;SDS011;20128;45.582;5.298;2023-04-06T00:25:47;12.52;;;5.78;;
33826;SDS011;20128;45.582;5.298;2023-04-06T00:28:12;9.60;;;4.80;;
33826;SDS011;20128;45.582;5.298;2023-04-06T00:30:38;12.35;;;5.30;;
33826;SDS011;20128;45.582;5.298;2023-04-06T00:33:04;12.27;;;5.10;;
33826;SDS011;20128;45.582;5.298;2023-04-06T00:35:30;28.10;;;12.82;;
33826;SDS011;20128;45.582;5.298;2023-04-06T00:37:56;31.52;;;12.60;;
33826;SDS011;20128;45.582;5.298;2023-04-06T00:40:21;41.40;;;10.85;;
33826;SDS011;20128;45.582;5.298;2023-04-06T00:42:47;22.55;;;8.50;;
33826;SDS011;20128;45.582;5.298;2023-04-06T00:45:13;77.55;;;25.48;;
33826;SDS011;20128;45.582;5.298;2023-04-06T00:47:38;36.47;;;10.73;;
33826;SDS011;20128;45.582;5.298;2023-04-06T00:50:04;78.88;;;26.20;;
33826;SDS011;20128;45.582;5.298;2023-04-06T00:52:30;49.60;;;17.92;;
33826;SDS011;20128;45.582;5.298;2023-04-06T00:54:56;50.72;;;20.60;;
33826;SDS011;20128;45.582;5.298;2023-04-06T00:57:22;23.27;;;8.10;;
33826;SDS011;20128;45.582;5.298;2023-04-06T00:59:47;69.63;;;26.25;;
33826;SDS011;20128;45.582;5.298;2023-04-06T01:02:13;58.08;;;23.95;;
33826;SDS011;20128;45.582;5.298;2023-04-06T01:04:40;26.70;;;12.95;;
33826;SDS011;20128;45.582;5.298;2023-04-06T01:07:05;22.23;;;11.60;;
33826;SDS011;20128;45.582;5.298;2023-04-06T01:09:31;14.23;;;5.60;;
33826;SDS011;20128;45.582;5.298;2023-04-06T01:11:57;12.90;;;5.95;;
33826;SDS011;20128;45.582;5.298;2023-04-06T01:14:23;15.70;;;8.23;;
33826;SDS011;20128;45.582;5.298;2023-04-06T01:16:49;13.25;;;6.95;;
33826;SDS011;20128;45.582;5.298;2023-04-06T01:19:17;18.92;;;7.78;;
33826;SDS011;20128;45.582;5.298;2023-04-06T01:21:43;15.10;;;6.90;;
33826;SDS011;20128;45.582;5.298;2023-04-06T01:24:08;20.65;;;7.53;;
33826;SDS011;20128;45.582;5.298;2023-04-06T01:26:35;16.30;;;8.90;;
33826;SDS011;20128;45.582;5.298;2023-04-06T01:29:02;24.02;;;10.82;;
33826;SDS011;20128;45.582;5.298;2023-04-06T01:31:28;24.45;;;10.05;;
33826;SDS011;20128;45.582;5.298;2023-04-06T01:33:54;21.25;;;7.25;;
33826;SDS011;20128;45.582;5.298;2023-04-06T01:36:20;14.07;;;5.38;;
33826;SDS011;20128;45.582;5.298;2023-04-06T01:38:47;12.07;;;5.50;;
33826;SDS011;20128;45.582;5.298;2023-04-06T01:41:12;11.18;;;4.93;;
33826;SDS011;20128;45.582;5.298;2023-04-06T01:43:38;16.38;;;6.10;;
33826;SDS011;20128;45.582;5.298;2023-04-06T01:46:04;14.00;;;5.40;;
33826;SDS011;20128;45.582;5.298;2023-04-06T01:48:30;19.65;;;5.90;;
33826;SDS011;20128;45.582;5.298;2023-04-06T01:50:55;17.40;;;6.65;;
33826;SDS011;20128;45.582;5.298;2023-04-06T01:53:21;14.38;;;7.80;;
33826;SDS011;20128;45.582;5.298;2023-04-06T01:55:47;21.70;;;9.15;;
33826;SDS011;20128;45.582;5.298;2023-04-06T01:58:13;17.33;;;7.20;;
33826;SDS011;20128;45.582;5.298;2023-04-06T02:00:39;23.67;;;6.88;;
33826;SDS011;20128;45.582;5.298;2023-04-06T02:03:05;15.40;;;6.45;;
33826;SDS011;20128;45.582;5.298;2023-04-06T02:05:31;20.33;;;6.85;;
33826;SDS011;20128;45.582;5.298;2023-04-06T02:08:02;19.77;;;7.03;;
33826;SDS011;20128;45.582;5.298;2023-04-06T02:10:31;15.88;;;8.20;;
33826;SDS011;20128;45.582;5.298;2023-04-06T02:12:57;11.85;;;6.35;;
33826;SDS011;20128;45.582;5.298;2023-04-06T02:15:23;13.57;;;6.30;;
33826;SDS011;20128;45.582;5.298;2023-04-06T02:17:49;14.65;;;5.78;;
33826;SDS011;20128;45.582;5.298;2023-04-06T02:20:14;13.25;;;5.95;;
33826;SDS011;20128;45.582;5.298;2023-04-06T02:22:40;15.88;;;5.50;;
33826;SDS011;20128;45.582;5.298;2023-04-06T02:25:06;11.27;;;6.28;;
33826;SDS011;20128;45.582;5.298;2023-04-06T02:27:32;13.85;;;5.65;;
33826;SDS011;20128;45.582;5.298;2023-04-06T02:29:58;10.55;;;5.15;;
33826;SDS011;20128;45.582;5.298;2023-04-06T02:32:24;13.30;;;4.95;;
33826;SDS011;20128;45.582;5.298;2023-04-06T02:34:49;9.50;;;5.30;;
33826;SDS011;20128;45.582;5.298;2023-04-06T02:37:15;20.92;;;5.88;;
33826;SDS011;20128;45.582;5.298;2023-04-06T02:39:41;16.05;;;6.53;;
33826;SDS011;20128;45.582;5.298;2023-04-06T02:42:06;10.63;;;5.35;;
33826;SDS011;20128;45.582;5.298;2023-04-06T02:44:33;13.93;;;5.60;;
33826;SDS011;20128;45.582;5.298;2023-04-06T02:46:59;12.82;;;6.10;;
33826;SDS011;20128;45.582;5.298;2023-04-06T02:49:25;17.88;;;5.82;;
33826;SDS011;20128;45.582;5.298;2023-04-06T02:51:51;14.18;;;6.55;;
33826;SDS011;20128;45.582;5.298;2023-04-06T02:54:16;21.27;;;6.78;;
33826;SDS011;20128;45.582;5.298;2023-04-06T02:56:42;10.65;;;5.20;;
33826;SDS011;20128;45.582;5.298;2023-04-06T02:59:08;15.05;;;5.50;;
33826;SDS011;20128;45.582;5.298;2023-04-06T03:01:34;15.93;;;5.88;;
33826;SDS011;20128;45.582;5.298;2023-04-06T03:04:01;12.55;;;4.82;;
33826;SDS011;20128;45.582;5.298;2023-04-06T03:06:26;11.52;;;5.32;;
33826;SDS011;20128;45.582;5.298;2023-04-06T03:08:52;10.65;;;5.22;;
33826;SDS011;20128;45.582;5.298;2023-04-06T03:11:18;9.30;;;5.43;;
33826;SDS011;20128;45.582;5.298;2023-04-06T03:13:44;13.75;;;6.22;;
33826;SDS011;20128;45.582;5.298;2023-04-06T03:16:09;12.50;;;5.10;;
33826;SDS011;20128;45.582;5.298;2023-04-06T03:18:35;9.52;;;5.28;;
33826;SDS011;20128;45.582;5.298;2023-04-06T03:21:01;9.45;;;5.20;;
33826;SDS011;20128;45.582;5.298;2023-04-06T03:23:26;11.10;;;5.72;;
33826;SDS011;20128;45.582;5.298;2023-04-06T03:25:52;16.52;;;5.50;;
33826;SDS011;20128;45.582;5.298;2023-04-06T03:28:18;11.50;;;5.45;;
33826;SDS011;20128;45.582;5.298;2023-04-06T03:30:44;17.63;;;6.38;;
33826;SDS011;20128;45.582;5.298;2023-04-06T03:33:10;14.48;;;6.68;;
33826;SDS011;20128;45.582;5.298;2023-04-06T03:35:36;11.48;;;5.35;;
33826;SDS011;20128;45.582;5.298;2023-04-06T03:38:02;14.63;;;5.13;;
33826;SDS011;20128;45.582;5.298;2023-04-06T03:40:28;14.27;;;5.53;;
33826;SDS011;20128;45.582;5.298;2023-04-06T03:42:54;20.83;;;6.25;;
33826;SDS011;20128;45.582;5.298;2023-04-06T03:45:20;12.02;;;5.40;;
33826;SDS011;20128;45.582;5.298;2023-04-06T03:47:46;13.45;;;6.10;;
33826;SDS011;20128;45.582;5.298;2023-04-06T03:50:11;10.23;;;5.55;;
33826;SDS011;20128;45.582;5.298;2023-04-06T03:52:37;13.55;;;5.22;;
33826;SDS011;20128;45.582;5.298;2023-04-06T03:55:03;9.32;;;5.47;;
33826;SDS011;20128;45.582;5.298;2023-04-06T03:57:29;12.77;;;6.05;;
33826;SDS011;20128;45.582;5.298;2023-04-06T03:59:55;12.10;;;6.00;;
33826;SDS011;20128;45.582;5.298;2023-04-06T04:02:20;12.13;;;5.85;;
33826;SDS011;20128;45.582;5.298;2023-04-06T04:04:46;18.05;;;5.75;;
33826;SDS011;20128;45.582;5.298;2023-04-06T04:07:12;18.30;;;6.65;;
33826;SDS011;20128;45.582;5.298;2023-04-06T04:09:37;11.93;;;6.00;;
33826;SDS011;20128;45.582;5.298;2023-04-06T04:12:03;20.27;;;6.22;;
33826;SDS011;20128;45.582;5.298;2023-04-06T04:14:29;19.02;;;8.10;;
33826;SDS011;20128;45.582;5.298;2023-04-06T04:16:54;16.27;;;6.05;;
33826;SDS011;20128;45.582;5.298;2023-04-06T04:19:20;17.13;;;5.93;;
33826;SDS011;20128;45.582;5.298;2023-04-06T04:21:46;10.93;;;5.80;;
33826;SDS011;20128;45.582;5.298;2023-04-06T04:24:12;11.80;;;6.05;;
33826;SDS011;20128;45.582;5.298;2023-04-06T04:26:38;10.75;;;5.82;;
33826;SDS011;20128;45.582;5.298;2023-04-06T04:29:04;12.85;;;5.88;;
33826;SDS011;20128;45.582;5.298;2023-04-06T04:31:31;15.43;;;5.93;;
33826;SDS011;20128;45.582;5.298;2023-04-06T04:33:57;15.82;;;6.18;;
33826;SDS011;20128;45.582;5.298;2023-04-06T04:36:23;15.48;;;5.45;;
33826;SDS011;20128;45.582;5.298;2023-04-06T04:38:50;11.80;;;5.88;;
33826;SDS011;20128;45.582;5.298;2023-04-06T04:41:16;21.42;;;6.57;;
33826;SDS011;20128;45.582;5.298;2023-04-06T04:43:42;17.17;;;6.60;;
33826;SDS011;20128;45.582;5.298;2023-04-06T04:46:08;13.43;;;6.20;;
33826;SDS011;20128;45.582;5.298;2023-04-06T04:48:34;17.35;;;6.93;;
33826;SDS011;20128;45.582;5.298;2023-04-06T04:50:59;22.55;;;6.07;;
33826;SDS011;20128;45.582;5.298;2023-04-06T04:53:25;11.82;;;5.57;;
33826;SDS011;20128;45.582;5.298;2023-04-06T04:55:51;18.40;;;6.57;;
33826;SDS011;20128;45.582;5.298;2023-04-06T04:58:17;14.30;;;6.45;;
33826;SDS011;20128;45.582;5.298;2023-04-06T05:00:44;15.98;;;6.38;;
33826;SDS011;20128;45.582;5.298;2023-04-06T05:03:14;15.45;;;6.25;;
33826;SDS011;20128;45.582;5.298;2023-04-06T05:05:51;15.63;;;6.90;;
33826;SDS011;20128;45.582;5.298;2023-04-06T05:08:17;13.60;;;6.15;;
33826;SDS011;20128;45.582;5.298;2023-04-06T05:10:43;28.27;;;6.45;;
33826;SDS011;20128;45.582;5.298;2023-04-06T05:13:09;16.15;;;6.80;;
33826;SDS011;20128;45.582;5.298;2023-04-06T05:15:35;16.02;;;7.22;;
33826;SDS011;20128;45.582;5.298;2023-04-06T05:18:06;19.75;;;7.10;;
33826;SDS011;20128;45.582;5.298;2023-04-06T05:20:32;15.63;;;6.88;;
33826;SDS011;20128;45.582;5.298;2023-04-06T05:22:59;18.50;;;6.65;;
33826;SDS011;20128;45.582;5.298;2023-04-06T05:25:25;14.55;;;6.88;;
33826;SDS011;20128;45.582;5.298;2023-04-06T05:27:50;30.10;;;7.68;;
33826;SDS011;20128;45.582;5.298;2023-04-06T05:30:16;13.90;;;6.97;;
33826;SDS011;20128;45.582;5.298;2023-04-06T05:32:42;16.75;;;6.72;;
33826;SDS011;20128;45.582;5.298;2023-04-06T05:35:09;15.85;;;7.10;;
33826;SDS011;20128;45.582;5.298;2023-04-06T05:37:35;16.65;;;6.32;;
33826;SDS011;20128;45.582;5.298;2023-04-06T05:40:02;18.75;;;6.85;;
33826;SDS011;20128;45.582;5.298;2023-04-06T05:42:36;18.00;;;7.20;;
33826;SDS011;20128;45.582;5.298;2023-04-06T05:45:11;15.53;;;7.07;;
33826;SDS011;20128;45.582;5.298;2023-04-06T05:47:42;20.92;;;6.78;;
33826;SDS011;20128;45.582;5.298;2023-04-06T05:50:09;20.05;;;6.20;;
33826;SDS011;20128;45.582;5.298;2023-04-06T05:52:35;11.77;;;6.68;;
33826;SDS011;20128;45.582;5.298;2023-04-06T05:55:01;16.33;;;6.70;;
33826;SDS011;20128;45.582;5.298;2023-04-06T05:57:28;22.45;;;6.95;;
33826;SDS011;20128;45.582;5.298;2023-04-06T05:59:53;16.58;;;7.55;;
33826;SDS011;20128;45.582;5.298;2023-04-06T06:02:20;27.08;;;6.75;;
33826;SDS011;20128;45.582;5.298;2023-04-06T06:04:46;15.52;;;7.70;;
33826;SDS011;20128;45.582;5.298;2023-04-06T06:07:13;29.73;;;6.85;;
33826;SDS011;20128;45.582;5.298;2023-04-06T06:09:40;14.43;;;6.60;;
33826;SDS011;20128;45.582;5.298;2023-04-06T06:12:05;24.38;;;7.57;;
33826;SDS011;20128;45.582;5.298;2023-04-06T06:14:31;25.92;;;7.68;;
33826;SDS011;20128;45.582;5.298;2023-04-06T06:16:57;22.35;;;7.25;;
33826;SDS011;20128;45.582;5.298;2023-04-06T06:19:22;18.48;;;6.85;;
33826;SDS011;20128;45.582;5.298;2023-04-06T06:21:48;27.17;;;8.10;;
33826;SDS011;20128;45.582;5.298;2023-04-06T06:24:14;26.85;;;7.15;;
33826;SDS011;20128;45.582;5.298;2023-04-06T06:26:40;36.28;;;8.05;;
33826;SDS011;20128;45.582;5.298;2023-04-06T06:29:06;40.40;;;11.07;;
33826;SDS011;20128;45.582;5.298;2023-04-06T06:31:32;37.00;;;13.57;;
33826;SDS011;20128;45.582;5.298;2023-04-06T06:33:58;39.85;;;14.98;;
33826;SDS011;20128;45.582;5.298;2023-04-06T06:36:25;51.75;;;16.63;;
33826;SDS011;20128;45.582;5.298;2023-04-06T06:38:51;26.48;;;9.38;;
33826;SDS011;20128;45.582;5.298;2023-04-06T06:41:16;28.98;;;9.18;;
33826;SDS011;20128;45.582;5.298;2023-04-06T06:43:42;22.15;;;10.00;;
33826;SDS011;20128;45.582;5.298;2023-04-06T06:46:08;28.40;;;10.90;;
33826;SDS011;20128;45.582;5.298;2023-04-06T06:48:34;19.58;;;8.77;;
33826;SDS011;20128;45.582;5.298;2023-04-06T06:51:00;23.02;;;7.50;;
33826;SDS011;20128;45.582;5.298;2023-04-06T06:53:26;27.27;;;9.13;;
33826;SDS011;20128;45.582;5.298;2023-04-06T06:55:51;15.65;;;7.47;;
33826;SDS011;20128;45.582;5.298;2023-04-06T06:58:18;28.95;;;9.95;;
33826;SDS011;20128;45.582;5.298;2023-04-06T07:00:45;17.20;;;7.13;;
33826;SDS011;20128;45.582;5.298;2023-04-06T07:03:11;19.15;;;9.02;;
33826;SDS011;20128;45.582;5.298;2023-04-06T07:05:36;23.60;;;8.13;;
33826;SDS011;20128;45.582;5.298;2023-04-06T07:08:02;28.48;;;8.23;;
33826;SDS011;20128;45.582;5.298;2023-04-06T07:10:28;23.63;;;8.20;;
33826;SDS011;20128;45.582;5.298;2023-04-06T07:12:54;21.70;;;8.13;;
33826;SDS011;20128;45.582;5.298;2023-04-06T07:15:19;17.13;;;6.60;;
33826;SDS011;20128;45.582;5.298;2023-04-06T07:17:45;23.73;;;8.90;;
33826;SDS011;20128;45.582;5.298;2023-04-06T07:20:11;26.63;;;7.65;;
33826;SDS011;20128;45.582;5.298;2023-04-06T07:22:38;16.73;;;7.43;;
33826;SDS011;20128;45.582;5.298;2023-04-06T07:25:04;27.45;;;8.73;;
33826;SDS011;20128;45.582;5.298;2023-04-06T07:27:30;16.80;;;7.72;;
33826;SDS011;20128;45.582;5.298;2023-04-06T07:29:56;16.13;;;7.50;;
33826;SDS011;20128;45.582;5.298;2023-04-06T07:32:22;16.58;;;8.63;;
33826;SDS011;20128;45.582;5.298;2023-04-06T07:34:47;15.88;;;7.65;;
33826;SDS011;20128;45.582;5.298;2023-04-06T07:37:13;21.02;;;8.73;;
33826;SDS011;20128;45.582;5.298;2023-04-06T07:39:39;18.73;;;7.60;;
33826;SDS011;20128;45.582;5.298;2023-04-06T07:42:06;19.17;;;7.63;;
33826;SDS011;20128;45.582;5.298;2023-04-06T07:44:32;15.38;;;7.50;;
33826;SDS011;20128;45.582;5.298;2023-04-06T07:46:57;21.23;;;8.85;;
33826;SDS011;20128;45.582;5.298;2023-04-06T07:49:23;19.38;;;9.73;;
33826;SDS011;20128;45.582;5.298;2023-04-06T07:51:49;18.55;;;10.55;;
33826;SDS011;20128;45.582;5.298;2023-04-06T07:54:14;25.02;;;10.43;;
33826;SDS011;20128;45.582;5.298;2023-04-06T07:56:40;25.42;;;10.73;;
33826;SDS011;20128;45.582;5.298;2023-04-06T07:59:06;28.23;;;10.95;;
33826;SDS011;20128;45.582;5.298;2023-04-06T08:01:31;26.08;;;11.25;;
33826;SDS011;20128;45.582;5.298;2023-04-06T08:03:57;32.40;;;10.75;;
33826;SDS011;20128;45.582;5.298;2023-04-06T08:06:23;25.13;;;10.07;;
33826;SDS011;20128;45.582;5.298;2023-04-06T08:08:50;29.42;;;10.70;;
33826;SDS011;20128;45.582;5.298;2023-04-06T08:11:15;22.27;;;12.02;;
33826;SDS011;20128;45.582;5.298;2023-04-06T08:13:41;29.80;;;12.35;;
33826;SDS011;20128;45.582;5.298;2023-04-06T08:16:07;28.60;;;9.95;;
33826;SDS011;20128;45.582;5.298;2023-04-06T08:18:32;29.80;;;12.82;;
33826;SDS011;20128;45.582;5.298;2023-04-06T08:20:58;23.33;;;10.88;;
33826;SDS011;20128;45.582;5.298;2023-04-06T08:23:23;24.35;;;10.02;;
33826;SDS011;20128;45.582;5.298;2023-04-06T08:25:49;23.40;;;9.75;;
33826;SDS011;20128;45.582;5.298;2023-04-06T08:28:15;25.02;;;10.50;;
33826;SDS011;20128;45.582;5.298;2023-04-06T08:30:41;28.73;;;10.32;;
33826;SDS011;20128;45.582;5.298;2023-04-06T08:33:07;22.30;;;10.55;;
33826;SDS011;20128;45.582;5.298;2023-04-06T08:35:33;19.98;;;9.02;;
33826;SDS011;20128;45.582;5.298;2023-04-06T08:37:59;17.48;;;8.63;;
33826;SDS011;20128;45.582;5.298;2023-04-06T08:40:25;23.17;;;8.68;;
33826;SDS011;20128;45.582;5.298;2023-04-06T08:42:54;20.98;;;9.60;;
33826;SDS011;20128;45.582;5.298;2023-04-06T08:45:21;17.92;;;9.13;;
33826;SDS011;20128;45.582;5.298;2023-04-06T08:47:51;18.42;;;8.70;;
33826;SDS011;20128;45.582;5.298;2023-04-06T08:50:19;19.98;;;8.85;;
33826;SDS011;20128;45.582;5.298;2023-04-06T08:52:49;17.98;;;8.40;;
33826;SDS011;20128;45.582;5.298;2023-04-06T08:55:15;17.70;;;8.30;;
33826;SDS011;20128;45.582;5.298;2023-04-06T08:57:41;21.35;;;9.13;;
33826;SDS011;20128;45.582;5.298;2023-04-06T09:00:09;22.65;;;9.90;;
33826;SDS011;20128;45.582;5.298;2023-04-06T09:02:39;18.58;;;8.82;;
33826;SDS011;20128;45.582;5.298;2023-04-06T09:05:07;19.88;;;8.82;;
33826;SDS011;20128;45.582;5.298;2023-04-06T09:07:34;21.70;;;9.05;;
33826;SDS011;20128;45.582;5.298;2023-04-06T09:10:01;17.73;;;9.13;;
33826;SDS011;20128;45.582;5.298;2023-04-06T09:12:28;17.20;;;8.45;;
33826;SDS011;20128;45.582;5.298;2023-04-06T09:14:55;19.85;;;8.13;;
33826;SDS011;20128;45.582;5.298;2023-04-06T09:17:22;19.88;;;8.30;;
33826;SDS011;20128;45.582;5.298;2023-04-06T09:19:49;18.38;;;8.43;;
33826;SDS011;20128;45.582;5.298;2023-04-06T09:22:15;15.57;;;7.88;;
33826;SDS011;20128;45.582;5.298;2023-04-06T09:24:42;18.15;;;7.88;;
33826;SDS011;20128;45.582;5.298;2023-04-06T09:27:13;13.95;;;6.22;;
33826;SDS011;20128;45.582;5.298;2023-04-06T09:29:40;11.80;;;6.15;;
33826;SDS011;20128;45.582;5.298;2023-04-06T09:32:07;13.80;;;6.70;;
33826;SDS011;20128;45.582;5.298;2023-04-06T09:34:36;11.68;;;6.07;;
33826;SDS011;20128;45.582;5.298;2023-04-06T09:37:15;16.92;;;6.18;;
33826;SDS011;20128;45.582;5.298;2023-04-06T09:39:43;14.00;;;6.43;;
33826;SDS011;20128;45.582;5.298;2023-04-06T09:42:09;12.30;;;5.40;;
33826;SDS011;20128;45.582;5.298;2023-04-06T09:44:35;11.43;;;5.55;;
33826;SDS011;20128;45.582;5.298;2023-04-06T09:47:00;11.90;;;5.90;;
33826;SDS011;20128;45.582;5.298;2023-04-06T09:49:31;8.73;;;4.35;;
33826;SDS011;20128;45.582;5.298;2023-04-06T09:52:02;10.02;;;5.50;;
33826;SDS011;20128;45.582;5.298;2023-04-06T09:54:29;15.25;;;6.43;;
33826;SDS011;20128;45.582;5.298;2023-04-06T09:56:56;11.52;;;5.70;;
33826;SDS011;20128;45.582;5.298;2023-04-06T10:08:02;9.60;;;5.35;;
33826;SDS011;20128;45.582;5.298;2023-04-06T10:10:32;12.65;;;5.82;;
33826;SDS011;20128;45.582;5.298;2023-04-06T10:12:58;9.63;;;5.30;;
33826;SDS011;20128;45.582;5.298;2023-04-06T10:15:23;8.55;;;4.80;;
33826;SDS011;20128;45.582;5.298;2023-04-06T10:17:49;11.10;;;5.30;;
33826;SDS011;20128;45.582;5.298;2023-04-06T10:20:18;11.90;;;4.80;;
33826;SDS011;20128;45.582;5.298;2023-04-06T10:22:52;14.52;;;5.47;;
33826;SDS011;20128;45.582;5.298;2023-04-06T10:25:31;9.25;;;4.65;;
33826;SDS011;20128;45.582;5.298;2023-04-06T10:30:29;9.23;;;4.97;;
33826;SDS011;20128;45.582;5.298;2023-04-06T10:32:55;9.95;;;4.78;;
33826;SDS011;20128;45.582;5.298;2023-04-06T10:35:21;8.38;;;4.95;;
33826;SDS011;20128;45.582;5.298;2023-04-06T10:38:00;9.13;;;4.85;;
33826;SDS011;20128;45.582;5.298;2023-04-06T10:40:27;10.52;;;4.30;;
33826;SDS011;20128;45.582;5.298;2023-04-06T10:42:53;11.13;;;4.63;;
33826;SDS011;20128;45.582;5.298;2023-04-06T10:45:24;8.20;;;4.68;;
33826;SDS011;20128;45.582;5.298;2023-04-06T10:47:54;9.45;;;4.30;;
33826;SDS011;20128;45.582;5.298;2023-04-06T10:50:21;9.90;;;4.32;;
33826;SDS011;20128;45.582;5.298;2023-04-06T10:52:47;10.85;;;4.88;;
33826;SDS011;20128;45.582;5.298;2023-04-06T10:55:27;7.65;;;4.53;;
33826;SDS011;20128;45.582;5.298;2023-04-06T10:57:54;9.25;;;4.90;;
33826;SDS011;20128;45.582;5.298;2023-04-06T11:00:20;11.05;;;4.90;;
33826;SDS011;20128;45.582;5.298;2023-04-06T11:02:46;11.80;;;5.40;;
33826;SDS011;20128;45.582;5.298;2023-04-06T11:05:12;7.13;;;3.70;;
33826;SDS011;20128;45.582;5.298;2023-04-06T11:07:41;6.68;;;3.97;;
33826;SDS011;20128;45.582;5.298;2023-04-06T11:10:07;7.70;;;4.20;;
33826;SDS011;20128;45.582;5.298;2023-04-06T11:12:33;7.35;;;4.45;;
33826;SDS011;20128;45.582;5.298;2023-04-06T11:15:00;9.50;;;5.00;;
33826;SDS011;20128;45.582;5.298;2023-04-06T11:17:34;9.00;;;5.40;;
33826;SDS011;20128;45.582;5.298;2023-04-06T11:20:01;8.77;;;5.45;;
33826;SDS011;20128;45.582;5.298;2023-04-06T11:22:28;8.82;;;4.82;;
33826;SDS011;20128;45.582;5.298;2023-04-06T11:25:06;11.82;;;4.70;;
33826;SDS011;20128;45.582;5.298;2023-04-06T11:27:33;11.10;;;5.32;;
33826;SDS011;20128;45.582;5.298;2023-04-06T11:30:00;11.05;;;4.63;;
33826;SDS011;20128;45.582;5.298;2023-04-06T11:32:27;7.88;;;4.57;;
33826;SDS011;20128;45.582;5.298;2023-04-06T11:34:53;6.57;;;3.85;;
33826;SDS011;20128;45.582;5.298;2023-04-06T11:37:19;9.30;;;4.68;;
33826;SDS011;20128;45.582;5.298;2023-04-06T11:39:49;9.93;;;4.50;;
33826;SDS011;20128;45.582;5.298;2023-04-06T11:42:28;8.02;;;4.60;;
33826;SDS011;20128;45.582;5.298;2023-04-06T11:44:55;13.40;;;4.75;;
33826;SDS011;20128;45.582;5.298;2023-04-06T11:47:35;8.05;;;4.68;;
33826;SDS011;20128;45.582;5.298;2023-04-06T11:50:06;10.32;;;4.68;;
33826;SDS011;20128;45.582;5.298;2023-04-06T11:52:39;9.90;;;4.80;;
33826;SDS011;20128;45.582;5.298;2023-04-06T11:57:40;8.30;;;4.15;;
33826;SDS011;20128;45.582;5.298;2023-04-06T12:00:07;6.22;;;3.95;;
33826;SDS011;20128;45.582;5.298;2023-04-06T12:02:34;7.15;;;3.92;;
33826;SDS011;20128;45.582;5.298;2023-04-06T12:05:04;9.45;;;5.25;;
33826;SDS011;20128;45.582;5.298;2023-04-06T12:07:30;8.90;;;4.78;;
33826;SDS011;20128;45.582;5.298;2023-04-06T12:09:57;7.88;;;4.55;;
33826;SDS011;20128;45.582;5.298;2023-04-06T12:12:24;8.55;;;4.57;;
33826;SDS011;20128;45.582;5.298;2023-04-06T12:14:50;9.73;;;4.78;;
33826;SDS011;20128;45.582;5.298;2023-04-06T12:17:16;8.52;;;5.03;;
33826;SDS011;20128;45.582;5.298;2023-04-06T12:19:41;12.23;;;5.30;;
33826;SDS011;20128;45.582;5.298;2023-04-06T12:22:07;7.70;;;4.35;;
33826;SDS011;20128;45.582;5.298;2023-04-06T12:24:33;7.70;;;4.32;;
33826;SDS011;20128;45.582;5.298;2023-04-06T12:26:58;9.25;;;4.57;;
33826;SDS011;20128;45.582;5.298;2023-04-06T12:29:24;8.88;;;4.28;;
33826;SDS011;20128;45.582;5.298;2023-04-06T12:31:50;14.25;;;4.93;;
33826;SDS011;20128;45.582;5.298;2023-04-06T12:34:16;9.50;;;4.47;;
33826;SDS011;20128;45.582;5.298;2023-04-06T12:36:41;8.93;;;4.30;;
33826;SDS011;20128;45.582;5.298;2023-04-06T12:39:07;10.25;;;5.25;;
33826;SDS011;20128;45.582;5.298;2023-04-06T12:41:33;10.98;;;5.75;;
33826;SDS011;20128;45.582;5.298;2023-04-06T12:43:59;12.25;;;5.60;;
33826;SDS011;20128;45.582;5.298;2023-04-06T12:46:25;9.63;;;5.13;;
33826;SDS011;20128;45.582;5.298;2023-04-06T12:48:51;12.40;;;6.53;;
33826;SDS011;20128;45.582;5.298;2023-04-06T12:51:20;34.25;;;15.82;;
33826;SDS011;20128;45.582;5.298;2023-04-06T12:53:46;12.00;;;5.63;;
33826;SDS011;20128;45.582;5.298;2023-04-06T12:56:12;11.60;;;5.53;;
33826;SDS011;20128;45.582;5.298;2023-04-06T12:58:40;14.73;;;6.68;;
33826;SDS011;20128;45.582;5.298;2023-04-06T13:01:06;9.68;;;4.70;;
33826;SDS011;20128;45.582;5.298;2023-04-06T13:03:32;16.85;;;6.75;;
33826;SDS011;20128;45.582;5.298;2023-04-06T13:05:59;7.65;;;4.35;;
33826;SDS011;20128;45.582;5.298;2023-04-06T13:08:25;9.20;;;5.07;;
33826;SDS011;20128;45.582;5.298;2023-04-06T13:10:52;7.13;;;4.40;;
33826;SDS011;20128;45.582;5.298;2023-04-06T13:13:22;10.77;;;5.43;;
33826;SDS011;20128;45.582;5.298;2023-04-06T13:15:49;9.82;;;5.03;;
33826;SDS011;20128;45.582;5.298;2023-04-06T13:18:16;9.40;;;5.18;;
33826;SDS011;20128;45.582;5.298;2023-04-06T13:20:42;12.70;;;4.68;;
33826;SDS011;20128;45.582;5.298;2023-04-06T13:23:08;8.02;;;4.55;;
33826;SDS011;20128;45.582;5.298;2023-04-06T13:25:34;7.85;;;3.92;;
33826;SDS011;20128;45.582;5.298;2023-04-06T13:28:00;6.70;;;3.70;;
33826;SDS011;20128;45.582;5.298;2023-04-06T13:30:26;5.50;;;3.50;;
33826;SDS011;20128;45.582;5.298;2023-04-06T13:32:51;6.32;;;3.20;;
33826;SDS011;20128;45.582;5.298;2023-04-06T13:35:17;12.55;;;7.13;;
33826;SDS011;20128;45.582;5.298;2023-04-06T13:37:43;4.75;;;3.33;;
33826;SDS011;20128;45.582;5.298;2023-04-06T13:40:09;8.48;;;3.97;;
33826;SDS011;20128;45.582;5.298;2023-04-06T13:42:36;8.25;;;3.83;;
33826;SDS011;20128;45.582;5.298;2023-04-06T13:45:03;6.95;;;3.15;;
33826;SDS011;20128;45.582;5.298;2023-04-06T13:47:29;12.07;;;3.40;;
33826;SDS011;20128;45.582;5.298;2023-04-06T13:49:55;6.95;;;2.78;;
33826;SDS011;20128;45.582;5.298;2023-04-06T13:52:21;8.70;;;2.75;;
33826;SDS011;20128;45.582;5.298;2023-04-06T13:54:48;9.57;;;3.45;;
33826;SDS011;20128;45.582;5.298;2023-04-06T13:57:14;4.80;;;2.78;;
33826;SDS011;20128;45.582;5.298;2023-04-06T13:59:40;7.22;;;2.92;;
33826;SDS011;20128;45.582;5.298;2023-04-06T14:02:06;5.72;;;2.70;;
33826;SDS011;20128;45.582;5.298;2023-04-06T14:04:33;4.68;;;2.75;;
33826;SDS011;20128;45.582;5.298;2023-04-06T14:06:59;6.53;;;3.17;;
33826;SDS011;20128;45.582;5.298;2023-04-06T14:09:26;7.07;;;2.80;;
33826;SDS011;20128;45.582;5.298;2023-04-06T14:11:53;9.48;;;3.58;;
33826;SDS011;20128;45.582;5.298;2023-04-06T14:14:19;5.55;;;3.20;;
33826;SDS011;20128;45.582;5.298;2023-04-06T14:16:46;8.80;;;3.78;;
33826;SDS011;20128;45.582;5.298;2023-04-06T14:19:12;3.78;;;2.63;;
33826;SDS011;20128;45.582;5.298;2023-04-06T14:21:40;4.93;;;2.78;;
33826;SDS011;20128;45.582;5.298;2023-04-06T14:24:07;7.97;;;2.97;;
33826;SDS011;20128;45.582;5.298;2023-04-06T14:26:33;7.25;;;3.00;;
33826;SDS011;20128;45.582;5.298;2023-04-06T14:29:03;5.03;;;3.10;;
33826;SDS011;20128;45.582;5.298;2023-04-06T14:31:29;4.10;;;2.53;;
33826;SDS011;20128;45.582;5.298;2023-04-06T14:33:55;8.05;;;2.90;;
33826;SDS011;20128;45.582;5.298;2023-04-06T14:36:21;5.15;;;3.00;;
33826;SDS011;20128;45.582;5.298;2023-04-06T14:38:47;6.15;;;2.47;;
33826;SDS011;20128;45.582;5.298;2023-04-06T14:41:16;4.78;;;2.80;;
33826;SDS011;20128;45.582;5.298;2023-04-06T14:43:42;4.18;;;1.98;;
33826;SDS011;20128;45.582;5.298;2023-04-06T14:46:08;6.85;;;1.90;;